Terminal Aerodrome Forecast
Issued by NWS

Current Version | Previous Version | Text Only | Print | Product List | Glossary On
Versions: 1 2 3 4 5 6 7 8 9 10 11 12 13 14 15 16
000
FTUS44 KBMX 021746
TAFTOI
TAF
KTOI 021746Z 0218/0318 04008KT P6SM FEW045
     FM030200 00000KT P6SM SKC
     FM031100 00000KT 6SM BR SKC
     FM031500 35004KT P6SM SKC=

USA.gov is the U.S. government's official web portal to all federal, state and local government web resources and services.